createdAt,value
2023-05-01T00:01:58.775Z,97134.56
2023-05-01T00:04:27.097Z,97127.06
2023-05-01T00:06:54.010Z,97139.19
2023-05-01T00:09:21.837Z,97134.75
2023-05-01T00:11:50.065Z,97137.28
2023-05-01T00:14:18.310Z,97134.75
2023-05-01T00:16:47.230Z,97131.91
2023-05-01T00:19:19.926Z,97135.19
2023-05-01T00:21:49.729Z,97146.81
2023-05-01T00:24:18.308Z,97152.91
2023-05-01T00:26:47.934Z,97148.63
2023-05-01T00:29:16.815Z,97153.53
2023-05-01T00:31:46.866Z,97150.91
2023-05-01T00:34:18.710Z,97158.34
2023-05-01T00:36:50.736Z,97158.53
2023-05-01T00:39:22.600Z,97155.97
2023-05-01T00:41:53.769Z,97162.97
2023-05-01T00:44:23.506Z,97159.75
2023-05-01T00:46:53.568Z,97168.84
2023-05-01T00:49:22.951Z,97171.78
2023-05-01T00:51:54.718Z,97176.34
2023-05-01T00:58:05.750Z,97180.69
2023-05-01T01:00:35.832Z,97187.53
2023-05-01T01:03:07.474Z,97181.34
2023-05-01T01:05:46.715Z,97187.69
2023-05-01T01:08:54.859Z,97190.31
2023-05-01T01:11:39.985Z,97190.81
2023-05-01T01:14:40.692Z,97197.78
2023-05-01T01:21:29.409Z,97199.25
2023-05-01T01:31:55.946Z,97203.91
2023-05-01T01:34:41.681Z,97208.59
2023-05-01T01:37:40.333Z,97212.03
2023-05-01T01:40:18.862Z,97217.88
2023-05-01T01:43:25.022Z,97211.19
2023-05-01T01:46:27.149Z,97217.38
2023-05-01T01:51:58.948Z,97211.34
2023-05-01T01:57:49.980Z,97210.88
2023-05-01T02:00:33.898Z,97220.75
2023-05-01T02:03:02.980Z,97216.94
2023-05-01T02:05:38.573Z,97216.19
2023-05-01T02:08:13.838Z,97212.75
2023-05-01T02:13:53.467Z,97224.25
2023-05-01T02:16:27.109Z,97220.00
2023-05-01T02:22:34.075Z,97220.44
2023-05-01T02:25:09.669Z,97223.19
2023-05-01T02:27:43.158Z,97227.69
2023-05-01T02:30:21.449Z,97231.97
2023-05-01T02:32:53.182Z,97219.72
2023-05-01T02:35:23.510Z,97230.78
2023-05-01T02:38:02.776Z,97217.81
2023-05-01T02:40:39.758Z,97225.06
2023-05-01T02:43:13.753Z,97238.50
2023-05-01T02:46:05.769Z,97236.09
2023-05-01T02:48:34.368Z,97230.09
2023-05-01T02:51:02.655Z,97232.09
2023-05-01T02:53:30.399Z,97232.22
2023-05-01T02:56:03.762Z,97241.25
2023-05-01T02:58:35.467Z,97242.91
2023-05-01T03:01:08.055Z,97236.25
2023-05-01T03:03:36.403Z,97243.38
2023-05-01T03:06:04.727Z,97244.91
2023-05-01T03:08:42.329Z,97254.53
2023-05-01T03:11:11.803Z,97249.06
2023-05-01T03:13:39.093Z,97253.75
2023-05-01T03:16:06.526Z,97257.47
2023-05-01T03:18:33.297Z,97247.94
2023-05-01T03:21:00.400Z,97253.28
2023-05-01T03:23:28.132Z,97248.66
2023-05-01T03:25:54.948Z,97262.28
2023-05-01T03:28:23.851Z,97256.00
2023-05-01T03:30:54.601Z,97258.22
2023-05-01T03:33:24.548Z,97258.28
2023-05-01T03:36:04.160Z,97254.78
2023-05-01T03:38:32.683Z,97256.78
2023-05-01T03:41:00.267Z,97258.94
2023-05-01T03:43:27.480Z,97267.09
2023-05-01T03:45:55.684Z,97262.56
2023-05-01T03:48:22.728Z,97264.97
2023-05-01T03:50:49.941Z,97273.28
2023-05-01T03:53:19.908Z,97271.84
2023-05-01T03:55:47.190Z,97277.75
2023-05-01T03:58:14.907Z,97277.91
2023-05-01T04:00:46.789Z,97287.31
2023-05-01T04:03:14.893Z,97283.31
2023-05-01T04:05:42.441Z,97290.19
2023-05-01T04:08:10.027Z,97295.72
2023-05-01T04:10:59.667Z,97294.31
2023-05-01T04:13:28.099Z,97304.31
2023-05-01T04:15:58.391Z,97303.91
2023-05-01T04:18:32.345Z,97311.78
2023-05-01T04:21:02.273Z,97316.72
2023-05-01T04:23:36.094Z,97316.66
2023-05-01T04:26:08.550Z,97308.94
2023-05-01T04:28:38.722Z,97307.97
2023-05-01T04:31:06.650Z,97316.78
2023-05-01T04:33:36.924Z,97313.50
2023-05-01T04:36:04.044Z,97312.47
2023-05-01T04:38:32.730Z,97309.69
2023-05-01T04:41:01.071Z,97312.66
2023-05-01T04:43:48.377Z,97323.94
2023-05-01T04:46:27.388Z,97310.66
2023-05-01T04:48:54.237Z,97311.72
2023-05-01T04:51:24.239Z,97307.81
2023-05-01T04:56:41.113Z,97318.72
2023-05-01T04:59:09.043Z,97313.72
2023-05-01T05:01:43.114Z,97312.84
2023-05-01T05:04:17.610Z,97313.63
2023-05-01T05:06:45.174Z,97317.38
2023-05-01T05:09:13.343Z,97315.50
2023-05-01T05:11:42.118Z,97325.34
2023-05-01T05:14:10.847Z,97330.66
2023-05-01T05:19:18.614Z,97330.06
2023-05-01T05:21:46.217Z,97324.38
2023-05-01T05:24:19.365Z,97327.22
2023-05-01T05:26:53.211Z,97331.69
2023-05-01T05:29:23.279Z,97332.34
2023-05-01T05:31:58.670Z,97335.66
2023-05-01T05:34:27.885Z,97339.78
2023-05-01T05:36:58.137Z,97330.31
2023-05-01T05:39:34.627Z,97332.63
2023-05-01T05:42:01.984Z,97334.91
2023-05-01T05:44:29.499Z,97336.75
2023-05-01T05:46:56.349Z,97334.13
2023-05-01T05:49:24.031Z,97336.84
2023-05-01T05:51:54.804Z,97335.38
2023-05-01T05:54:35.489Z,97338.91
2023-05-01T05:57:04.073Z,97329.47
2023-05-01T06:02:17.428Z,97341.75
2023-05-01T06:04:44.677Z,97343.50
2023-05-01T06:07:14.593Z,97343.75
2023-05-01T06:09:48.543Z,97341.84
2023-05-01T06:15:00.747Z,97342.66
2023-05-01T06:17:27.556Z,97338.38
2023-05-01T06:19:56.807Z,97340.97
2023-05-01T06:22:23.962Z,97333.91
2023-05-01T06:24:57.844Z,97346.44
2023-05-01T06:27:24.667Z,97342.94
2023-05-01T06:30:00.016Z,97344.66
2023-05-01T06:32:26.941Z,97342.03
2023-05-01T06:34:57.833Z,97356.25
2023-05-01T06:37:28.243Z,97350.34
2023-05-01T06:39:55.593Z,97350.50
2023-05-01T06:42:40.061Z,97353.38
2023-05-01T06:45:18.765Z,97358.91
2023-05-01T06:47:46.157Z,97349.25
2023-05-01T06:50:28.869Z,97352.22
2023-05-01T06:52:57.876Z,97362.19
2023-05-01T06:55:24.861Z,97353.91
2023-05-01T06:58:30.456Z,97365.44
2023-05-01T07:00:57.401Z,97360.88
2023-05-01T07:03:25.643Z,97360.41
2023-05-01T07:05:52.352Z,97355.78
2023-05-01T07:08:19.107Z,97363.28
2023-05-01T07:10:46.007Z,97357.63
2023-05-01T07:13:12.746Z,97363.78
2023-05-01T07:15:40.933Z,97364.63
2023-05-01T07:18:11.828Z,97368.28
2023-05-01T07:20:38.804Z,97373.25
2023-05-01T07:23:27.381Z,97379.84
2023-05-01T07:26:10.873Z,97375.06
2023-05-01T07:28:38.557Z,97381.00
2023-05-01T07:31:05.728Z,97376.88
2023-05-01T07:33:32.527Z,97377.13
2023-05-01T07:36:03.252Z,97382.91
2023-05-01T07:38:30.148Z,97374.69
2023-05-01T07:41:07.501Z,97373.03
2023-05-01T07:43:34.453Z,97373.69
2023-05-01T07:46:02.147Z,97372.03
2023-05-01T07:48:32.841Z,97373.66
2023-05-01T07:51:03.596Z,97380.28
2023-05-01T07:53:34.174Z,97378.19
2023-05-01T07:56:09.072Z,97382.94
2023-05-01T07:58:37.221Z,97383.97
2023-05-01T08:01:06.324Z,97381.03
2023-05-01T08:03:33.309Z,97380.16
2023-05-01T08:06:00.591Z,97379.13
2023-05-01T08:08:27.865Z,97384.50
2023-05-01T08:11:01.329Z,97391.44
2023-05-01T08:13:28.352Z,97380.44
2023-05-01T08:16:03.479Z,97381.34
2023-05-01T08:18:31.624Z,97377.97
2023-05-01T08:21:01.313Z,97380.84
2023-05-01T08:23:30.653Z,97388.88
2023-05-01T08:25:58.093Z,97379.63
2023-05-01T08:28:26.705Z,97391.69
2023-05-01T08:30:53.599Z,97402.63
2023-05-01T08:33:21.677Z,97394.66
2023-05-01T08:35:49.643Z,97400.69
2023-05-01T08:38:17.738Z,97396.34
2023-05-01T08:40:53.954Z,97399.44
2023-05-01T08:43:33.540Z,97394.69
2023-05-01T08:46:01.736Z,97399.13
2023-05-01T08:48:30.136Z,97397.69
2023-05-01T08:51:53.109Z,97401.78
2023-05-01T08:55:04.581Z,97397.47
2023-05-01T08:57:32.935Z,97397.41
2023-05-01T09:00:01.685Z,97394.16
2023-05-01T09:02:30.078Z,97392.63
2023-05-01T09:05:01.045Z,97377.78
2023-05-01T09:07:28.141Z,97392.22
2023-05-01T09:09:55.765Z,97395.06
2023-05-01T09:12:29.596Z,97383.59
2023-05-01T09:14:57.232Z,97386.09
2023-05-01T09:17:24.694Z,97390.09
2023-05-01T09:19:55.432Z,97385.94
2023-05-01T09:22:22.566Z,97386.66
2023-05-01T09:24:52.378Z,97376.69
2023-05-01T09:27:19.561Z,97390.19
2023-05-01T09:29:51.276Z,97380.03
2023-05-01T09:32:24.177Z,97388.09
2023-05-01T09:34:57.236Z,97382.41
2023-05-01T09:37:33.388Z,97388.03
2023-05-01T09:40:31.085Z,97384.41
2023-05-01T09:42:58.870Z,97390.81
2023-05-01T09:45:27.252Z,97391.84
2023-05-01T09:48:15.594Z,97385.13
2023-05-01T09:50:43.616Z,97395.56
2023-05-01T09:53:11.834Z,97395.69
2023-05-01T09:55:38.819Z,97391.13
2023-05-01T09:58:06.255Z,97394.66
2023-05-01T10:00:47.983Z,97397.19
2023-05-01T10:03:15.490Z,97387.63
2023-05-01T10:05:53.914Z,97400.31
2023-05-01T10:08:21.800Z,97397.59
2023-05-01T10:11:23.292Z,97394.50
2023-05-01T10:14:08.615Z,97393.97
2023-05-01T10:16:37.414Z,97397.41
2023-05-01T10:19:09.714Z,97396.94
2023-05-01T10:21:36.557Z,97393.63
2023-05-01T10:24:04.341Z,97391.53
2023-05-01T10:26:31.700Z,97396.88
2023-05-01T10:28:59.621Z,97392.53
2023-05-01T10:31:27.928Z,97391.09
2023-05-01T10:33:56.681Z,97390.75
2023-05-01T10:36:51.109Z,97381.31
2023-05-01T10:39:34.153Z,97381.19
2023-05-01T10:42:06.797Z,97380.03
2023-05-01T10:44:35.115Z,97370.56
2023-05-01T10:47:43.079Z,97374.28
2023-05-01T10:50:16.149Z,97372.44
2023-05-01T10:53:12.268Z,97375.50
2023-05-01T10:55:43.657Z,97374.84
2023-05-01T10:58:14.288Z,97371.75
2023-05-01T11:00:41.811Z,97372.53
2023-05-01T11:03:24.810Z,97362.31
2023-05-01T11:06:01.232Z,97363.75
2023-05-01T11:08:39.709Z,97367.28
2023-05-01T11:11:25.197Z,97361.50
2023-05-01T11:14:05.068Z,97368.06
2023-05-01T11:16:38.483Z,97366.47
2023-05-01T11:19:20.674Z,97367.88
2023-05-01T11:21:54.400Z,97361.25
2023-05-01T11:24:21.281Z,97365.41
2023-05-01T11:26:49.172Z,97368.31
2023-05-01T11:29:16.182Z,97365.00
2023-05-01T11:31:48.639Z,97368.69
2023-05-01T11:34:17.264Z,97358.31
2023-05-01T11:36:52.229Z,97360.13
2023-05-01T11:39:20.387Z,97362.97
2023-05-01T11:41:48.261Z,97369.22
2023-05-01T11:44:21.691Z,97355.38
2023-05-01T11:46:57.877Z,97365.09
2023-05-01T11:49:28.821Z,97367.69
2023-05-01T11:51:59.110Z,97355.75
2023-05-01T11:54:27.419Z,97360.47
2023-05-01T11:57:01.282Z,97365.38
2023-05-01T11:59:28.497Z,97365.81
2023-05-01T12:01:58.599Z,97366.00
2023-05-01T12:04:32.318Z,97366.56
2023-05-01T12:07:02.393Z,97368.66
2023-05-01T12:09:29.453Z,97369.28
2023-05-01T12:12:00.021Z,97368.59
2023-05-01T12:14:26.883Z,97369.91
2023-05-01T12:16:54.068Z,97365.72
2023-05-01T12:19:23.950Z,97371.38
2023-05-01T12:22:06.187Z,97364.88
2023-05-01T12:24:33.416Z,97367.72
2023-05-01T12:27:03.636Z,97372.63
2023-05-01T12:29:41.753Z,97360.38
2023-05-01T12:32:09.165Z,97359.91
2023-05-01T12:34:35.978Z,97355.97
2023-05-01T12:37:05.342Z,97364.53
2023-05-01T12:39:44.990Z,97355.44
2023-05-01T12:42:14.685Z,97353.50
2023-05-01T12:44:44.790Z,97360.91
2023-05-01T12:47:16.553Z,97358.44
2023-05-01T12:49:43.704Z,97354.31
2023-05-01T12:52:11.422Z,97369.56
2023-05-01T12:54:39.552Z,97367.09
2023-05-01T12:57:12.025Z,97362.16
2023-05-01T12:59:48.143Z,97369.72
2023-05-01T13:02:18.936Z,97369.94
2023-05-01T13:04:49.570Z,97372.44
2023-05-01T13:07:21.788Z,97355.53
2023-05-01T13:10:01.565Z,97363.78
2023-05-01T13:12:30.565Z,97367.69
2023-05-01T13:15:02.425Z,97372.03
2023-05-01T13:18:01.660Z,97374.28
2023-05-01T13:20:45.819Z,97370.38
2023-05-01T13:23:14.918Z,97371.00
2023-05-01T13:26:09.244Z,97372.25
2023-05-01T13:28:49.172Z,97374.91
2023-05-01T13:31:24.508Z,97376.91
2023-05-01T13:33:54.244Z,97378.31
2023-05-01T13:36:34.811Z,97380.38
2023-05-01T13:39:23.550Z,97381.03
2023-05-01T13:41:57.571Z,97394.69
2023-05-01T13:44:33.782Z,97385.75
2023-05-01T13:47:04.066Z,97385.84
2023-05-01T13:49:31.567Z,97398.56
2023-05-01T13:51:59.016Z,97392.38
2023-05-01T13:54:27.003Z,97397.41
2023-05-01T13:56:54.498Z,97392.50
2023-05-01T13:59:25.931Z,97393.03
2023-05-01T14:02:01.267Z,97383.97
2023-05-01T14:04:29.689Z,97391.38
2023-05-01T14:06:56.920Z,97384.81
2023-05-01T14:09:30.248Z,97385.22
2023-05-01T14:11:59.148Z,97388.53
2023-05-01T14:14:26.607Z,97380.69
2023-05-01T14:16:58.673Z,97383.34
2023-05-01T14:19:27.865Z,97379.88
2023-05-01T14:21:55.193Z,97385.44
2023-05-01T14:24:36.365Z,97383.59
2023-05-01T14:27:05.878Z,97387.69
2023-05-01T14:29:34.180Z,97390.38
2023-05-01T14:35:29.806Z,97385.00
2023-05-01T14:41:11.287Z,97390.78
2023-05-01T14:44:07.420Z,97387.69
2023-05-01T14:46:47.753Z,97382.09
2023-05-01T14:49:23.375Z,97377.34
2023-05-01T14:52:04.085Z,97380.63
2023-05-01T14:54:48.385Z,97372.56
2023-05-01T14:57:31.634Z,97375.25
2023-05-01T15:02:48.982Z,97371.97
2023-05-01T15:05:29.147Z,97371.81
2023-05-01T15:07:58.342Z,97368.72
2023-05-01T15:10:30.366Z,97373.78
2023-05-01T15:12:58.381Z,97365.13
2023-05-01T15:15:33.944Z,97373.78
2023-05-01T15:18:07.221Z,97372.41
2023-05-01T15:20:35.096Z,97376.47
2023-05-01T15:23:03.641Z,97370.75
2023-05-01T15:25:31.487Z,97375.66
2023-05-01T15:27:58.630Z,97373.63
2023-05-01T15:30:28.076Z,97377.75
2023-05-01T15:32:56.348Z,97367.06
2023-05-01T15:35:44.914Z,97368.09
2023-05-01T15:38:12.481Z,97372.00
2023-05-01T15:40:39.874Z,97367.88
2023-05-01T15:43:06.931Z,97363.16
2023-05-01T15:45:34.489Z,97367.09
2023-05-01T15:48:01.992Z,97368.72
2023-05-01T15:50:28.878Z,97366.06
2023-05-01T15:52:56.578Z,97369.16
2023-05-01T15:55:23.187Z,97370.16
2023-05-01T15:57:50.432Z,97370.56
2023-05-01T16:00:22.269Z,97378.53
2023-05-01T16:02:49.170Z,97368.19
2023-05-01T16:05:24.741Z,97384.53
2023-05-01T16:07:56.103Z,97388.09
2023-05-01T16:10:23.876Z,97386.81
2023-05-01T16:12:51.406Z,97383.38
2023-05-01T16:15:18.706Z,97385.41
2023-05-01T16:17:46.820Z,97393.19
2023-05-01T16:20:14.688Z,97391.00
2023-05-01T16:22:43.521Z,97390.13
2023-05-01T16:25:11.221Z,97395.63
2023-05-01T16:27:47.879Z,97402.28
2023-05-01T16:30:16.020Z,97400.44
2023-05-01T16:32:45.750Z,97403.31
2023-05-01T16:35:18.784Z,97406.28
2023-05-01T16:37:47.272Z,97407.44
2023-05-01T16:40:18.488Z,97413.91
2023-05-01T16:42:53.660Z,97418.09
2023-05-01T16:45:21.487Z,97428.25
2023-05-01T16:47:48.999Z,97421.38
2023-05-01T16:50:23.146Z,97429.22
2023-05-01T16:52:52.629Z,97430.53
2023-05-01T16:55:19.810Z,97433.25
2023-05-01T16:57:46.604Z,97435.56
2023-05-01T17:00:15.123Z,97434.91
2023-05-01T17:02:42.255Z,97437.22
2023-05-01T17:05:09.907Z,97440.94
2023-05-01T17:07:37.006Z,97448.00
2023-05-01T17:10:04.384Z,97449.00
2023-05-01T17:12:31.664Z,97443.28
2023-05-01T17:14:58.618Z,97451.97
2023-05-01T17:17:25.745Z,97450.06
2023-05-01T17:19:53.039Z,97455.47
2023-05-01T17:22:20.210Z,97457.16
2023-05-01T17:24:47.891Z,97469.38
2023-05-01T17:27:15.783Z,97464.25
2023-05-01T17:29:53.857Z,97461.19
2023-05-01T17:32:36.881Z,97464.00
2023-05-01T17:35:18.727Z,97469.56
2023-05-01T17:37:46.871Z,97473.44
2023-05-01T17:40:13.563Z,97482.38
2023-05-01T17:43:04.976Z,97478.81
2023-05-01T17:45:55.313Z,97480.50
2023-05-01T17:48:24.691Z,97483.50
2023-05-01T17:54:35.106Z,97499.47
2023-05-01T17:57:04.909Z,97498.53
2023-05-01T17:59:36.565Z,97507.00
2023-05-01T18:02:13.497Z,97506.03
2023-05-01T18:04:42.462Z,97505.69
2023-05-01T18:07:10.665Z,97513.63
2023-05-01T18:09:48.283Z,97519.69
2023-05-01T18:12:23.800Z,97520.66
2023-05-01T18:14:52.537Z,97523.94
2023-05-01T18:17:32.235Z,97529.38
2023-05-01T18:20:02.755Z,97534.00
2023-05-01T18:25:16.168Z,97536.03
2023-05-01T18:27:46.301Z,97541.03
2023-05-01T18:30:16.270Z,97547.03
2023-05-01T18:32:48.828Z,97549.63
2023-05-01T18:35:21.684Z,97539.72
2023-05-01T18:37:49.921Z,97556.72
2023-05-01T18:40:19.157Z,97558.53
2023-05-01T18:42:48.949Z,97562.38
2023-05-01T18:45:18.389Z,97556.94
2023-05-01T18:47:56.235Z,97556.69
2023-05-01T18:50:24.599Z,97576.00
2023-05-01T18:52:54.077Z,97578.00
2023-05-01T18:55:24.895Z,97574.97
2023-05-01T18:58:12.339Z,97581.69
2023-05-01T19:00:47.454Z,97582.59
2023-05-01T19:03:31.500Z,97588.72
2023-05-01T19:06:00.222Z,97584.59
2023-05-01T19:08:33.141Z,97584.06
2023-05-01T19:11:01.695Z,97592.84
2023-05-01T19:13:31.146Z,97594.41
2023-05-01T19:16:00.314Z,97601.88
2023-05-01T19:18:29.758Z,97601.50
2023-05-01T19:21:01.398Z,97603.72
2023-05-01T19:23:36.088Z,97609.56
2023-05-01T19:26:14.008Z,97608.72
2023-05-01T19:28:43.417Z,97607.19
2023-05-01T19:31:13.800Z,97618.00
2023-05-01T19:33:43.310Z,97617.56
2023-05-01T19:36:12.246Z,97617.13
2023-05-01T19:39:04.186Z,97609.75
2023-05-01T19:41:36.769Z,97615.44
2023-05-01T19:46:48.680Z,97630.94
2023-05-01T19:49:25.946Z,97624.69
2023-05-01T19:52:04.763Z,97627.16
2023-05-01T19:54:58.376Z,97631.38
2023-05-01T19:57:37.590Z,97627.47
2023-05-01T20:00:16.517Z,97626.03
2023-05-01T20:03:32.776Z,97623.19
2023-05-01T20:06:03.238Z,97635.50
2023-05-01T20:08:33.034Z,97625.66
2023-05-01T20:11:08.458Z,97626.31
2023-05-01T20:13:44.623Z,97627.06
2023-05-01T20:16:21.786Z,97629.66
2023-05-01T20:19:02.452Z,97622.66
2023-05-01T20:21:41.529Z,97628.03
2023-05-01T20:24:12.414Z,97633.78
2023-05-01T20:26:45.261Z,97629.72
2023-05-01T20:29:14.736Z,97631.69
2023-05-01T20:32:23.902Z,97634.31
2023-05-01T20:35:05.333Z,97635.59
2023-05-01T20:37:59.035Z,97637.50
2023-05-01T20:40:49.739Z,97650.88
2023-05-01T20:43:36.130Z,97633.19
2023-05-01T20:46:21.148Z,97641.91
2023-05-01T20:49:30.585Z,97641.81
2023-05-01T20:52:08.672Z,97648.53
2023-05-01T20:54:46.725Z,97649.97
2023-05-01T21:00:24.698Z,97650.72
2023-05-01T21:02:53.464Z,97652.38
2023-05-01T21:05:25.693Z,97650.03
2023-05-01T21:07:53.567Z,97655.41
2023-05-01T21:10:21.650Z,97656.25
2023-05-01T21:12:48.697Z,97665.56
2023-05-01T21:15:16.688Z,97662.69
2023-05-01T21:18:07.945Z,97659.13
2023-05-01T21:20:39.595Z,97665.19
2023-05-01T21:23:08.067Z,97664.88
2023-05-01T21:25:39.009Z,97661.50
2023-05-01T21:28:08.058Z,97664.84
2023-05-01T21:30:37.371Z,97664.38
2023-05-01T21:33:08.319Z,97671.03
2023-05-01T21:35:35.901Z,97667.94
2023-05-01T21:38:09.222Z,97666.75
2023-05-01T21:40:43.486Z,97668.41
2023-05-01T21:43:11.621Z,97671.41
2023-05-01T21:45:44.089Z,97672.91
2023-05-01T21:48:16.988Z,97668.28
2023-05-01T21:50:56.513Z,97670.56
2023-05-01T21:53:33.926Z,97681.28
2023-05-01T21:56:05.954Z,97685.41
2023-05-01T21:58:41.345Z,97689.38
2023-05-01T22:01:12.838Z,97686.50
2023-05-01T22:03:53.538Z,97682.19
2023-05-01T22:06:24.776Z,97687.69
2023-05-01T22:08:53.489Z,97690.75
2023-05-01T22:11:22.860Z,97690.69
2023-05-01T22:13:49.598Z,97694.13
2023-05-01T22:16:17.037Z,97683.69
2023-05-01T22:18:44.337Z,97690.25
2023-05-01T22:21:11.848Z,97692.75
2023-05-01T22:23:39.014Z,97695.63
2023-05-01T22:26:06.645Z,97694.41
2023-05-01T22:28:39.572Z,97695.31
2023-05-01T22:31:08.246Z,97692.38
2023-05-01T22:33:38.316Z,97688.75
2023-05-01T22:36:07.562Z,97692.59
2023-05-01T22:38:34.829Z,97692.69
2023-05-01T22:41:01.868Z,97690.06
2023-05-01T22:43:28.617Z,97685.06
2023-05-01T22:45:59.141Z,97687.78
2023-05-01T22:48:27.716Z,97686.69
2023-05-01T22:50:54.675Z,97688.47
2023-05-01T22:53:21.721Z,97691.72
2023-05-01T22:55:55.926Z,97686.09
2023-05-01T22:58:23.872Z,97688.91
2023-05-01T23:00:51.600Z,97694.66
2023-05-01T23:03:19.431Z,97692.94
2023-05-01T23:05:48.004Z,97688.44
2023-05-01T23:08:19.518Z,97691.91
2023-05-01T23:10:49.262Z,97684.16
2023-05-01T23:13:26.034Z,97696.75
2023-05-01T23:16:03.517Z,97687.97
2023-05-01T23:18:33.663Z,97685.00
2023-05-01T23:21:03.686Z,97692.44
2023-05-01T23:23:54.097Z,97691.72
2023-05-01T23:26:29.595Z,97687.56
2023-05-01T23:28:57.621Z,97691.72
2023-05-01T23:31:28.679Z,97694.03
2023-05-01T23:34:05.784Z,97687.56
2023-05-01T23:36:33.889Z,97686.94
2023-05-01T23:39:11.214Z,97677.31
2023-05-01T23:42:01.406Z,97681.16
2023-05-01T23:44:30.664Z,97681.69
2023-05-01T23:47:01.695Z,97681.16
2023-05-01T23:49:35.493Z,97678.34
2023-05-01T23:52:03.957Z,97680.25
2023-05-01T23:54:38.173Z,97672.06
2023-05-01T23:57:09.649Z,97681.28
2023-05-01T23:59:41.586Z,97671.22
